createdAt,value
2024-03-16T00:00:29.635Z,7.93
2024-03-16T00:01:29.706Z,7.93
2024-03-16T00:02:29.604Z,7.92
2024-03-16T00:03:29.644Z,7.89
2024-03-16T00:04:29.569Z,7.89
2024-03-16T00:05:29.591Z,7.86
2024-03-16T00:06:29.572Z,7.87
2024-03-16T00:07:29.652Z,7.86
2024-03-16T00:08:29.531Z,7.89
2024-03-16T00:09:29.546Z,7.90
2024-03-16T00:10:29.499Z,7.93
2024-03-16T00:11:29.675Z,7.93
2024-03-16T00:12:29.555Z,7.95
2024-03-16T00:13:29.479Z,7.98
2024-03-16T00:14:29.482Z,7.97
2024-03-16T00:15:29.508Z,7.98
2024-03-16T00:16:29.438Z,7.97
2024-03-16T00:17:29.436Z,7.97
2024-03-16T00:18:29.452Z,7.95
2024-03-16T00:19:29.421Z,7.97
2024-03-16T00:20:29.403Z,7.97
2024-03-16T00:21:29.422Z,7.95
2024-03-16T00:22:29.379Z,7.97
2024-03-16T00:23:29.378Z,7.95
2024-03-16T00:24:29.376Z,7.93
2024-03-16T00:25:29.373Z,7.95
2024-03-16T00:26:29.342Z,7.92
2024-03-16T00:27:29.406Z,7.90
2024-03-16T00:28:29.321Z,7.90
2024-03-16T00:29:30.125Z,7.87
2024-03-16T00:30:29.309Z,7.85
2024-03-16T00:31:29.293Z,7.86
2024-03-16T00:32:29.334Z,7.85
2024-03-16T00:33:29.297Z,7.86
2024-03-16T00:34:29.283Z,7.82
2024-03-16T00:35:29.276Z,7.83
2024-03-16T00:36:29.289Z,7.83
2024-03-16T00:37:29.228Z,7.82
2024-03-16T00:38:29.208Z,7.85
2024-03-16T00:39:29.251Z,7.82
2024-03-16T00:40:29.212Z,7.77
2024-03-16T00:41:29.189Z,7.79
2024-03-16T00:42:29.374Z,7.74
2024-03-16T00:43:29.178Z,7.71
2024-03-16T00:44:29.158Z,7.71
2024-03-16T00:45:29.179Z,7.72
2024-03-16T00:46:29.132Z,7.75
2024-03-16T00:47:29.297Z,7.79
2024-03-16T00:48:29.123Z,7.71
2024-03-16T00:49:29.110Z,7.75
2024-03-16T00:50:29.099Z,7.67
2024-03-16T00:51:29.170Z,7.55
2024-03-16T00:52:29.079Z,7.60
2024-03-16T00:53:29.052Z,7.57
2024-03-16T00:54:29.555Z,7.57
2024-03-16T00:55:29.570Z,7.55
2024-03-16T00:56:29.026Z,7.52
2024-03-16T00:57:29.049Z,7.50
2024-03-16T00:58:29.002Z,7.49
2024-03-16T00:59:29.005Z,7.50
2024-03-16T01:00:29.812Z,7.45
2024-03-16T01:01:29.043Z,7.46
2024-03-16T01:02:28.958Z,7.46
2024-03-16T01:03:28.974Z,7.43
2024-03-16T01:04:28.940Z,7.46
2024-03-16T01:05:28.930Z,7.43
2024-03-16T01:06:29.094Z,7.46
2024-03-16T01:07:28.926Z,7.43
2024-03-16T01:08:28.888Z,7.42
2024-03-16T01:09:28.976Z,7.40
2024-03-16T01:10:28.890Z,7.40
2024-03-16T01:11:28.907Z,7.37
2024-03-16T01:12:28.907Z,7.40
2024-03-16T01:13:28.841Z,7.43
2024-03-16T01:14:28.830Z,7.42
2024-03-16T01:15:28.958Z,7.43
2024-03-16T01:16:28.828Z,7.48
2024-03-16T01:17:28.853Z,7.49
2024-03-16T01:18:28.834Z,7.46
2024-03-16T01:19:28.804Z,7.46
2024-03-16T01:20:28.769Z,7.48
2024-03-16T01:21:28.781Z,7.45
2024-03-16T01:22:28.777Z,7.43
2024-03-16T01:23:28.756Z,7.46
2024-03-16T01:24:28.754Z,7.45
2024-03-16T01:25:28.717Z,7.52
2024-03-16T01:26:28.708Z,7.55
2024-03-16T01:27:28.741Z,7.60
2024-03-16T01:28:28.699Z,7.64
2024-03-16T01:29:28.689Z,7.68
2024-03-16T01:30:28.726Z,7.69
2024-03-16T01:31:28.678Z,7.68
2024-03-16T01:32:28.668Z,7.71
2024-03-16T01:33:28.673Z,7.68
2024-03-16T01:34:28.627Z,7.69
2024-03-16T01:35:28.635Z,7.68
2024-03-16T01:36:28.649Z,7.68
2024-03-16T01:37:28.593Z,7.68
2024-03-16T01:38:28.576Z,7.63
2024-03-16T01:39:28.615Z,7.67
2024-03-16T01:40:28.580Z,7.64
2024-03-16T01:41:28.554Z,7.63
2024-03-16T01:42:28.610Z,7.63
2024-03-16T01:43:28.531Z,7.63
2024-03-16T01:44:28.519Z,7.64
2024-03-16T01:45:28.583Z,7.63
2024-03-16T01:46:28.510Z,7.60
2024-03-16T01:47:28.504Z,7.63
2024-03-16T01:48:28.677Z,7.61
2024-03-16T01:49:28.471Z,7.58
2024-03-16T01:50:28.455Z,7.60
2024-03-16T01:51:28.559Z,7.57
2024-03-16T01:52:28.453Z,7.53
2024-03-16T01:53:28.447Z,7.52
2024-03-16T01:54:28.441Z,7.46
2024-03-16T01:55:28.424Z,7.46
2024-03-16T01:56:28.393Z,7.48
2024-03-16T01:57:28.464Z,7.48
2024-03-16T01:58:28.364Z,7.43
2024-03-16T01:59:28.367Z,7.43
2024-03-16T02:00:28.437Z,7.42
2024-03-16T02:01:28.662Z,7.40
2024-03-16T02:02:28.361Z,7.35
2024-03-16T02:03:28.335Z,7.35
2024-03-16T02:04:28.306Z,7.32
2024-03-16T02:05:28.311Z,7.32
2024-03-16T02:06:28.513Z,7.32
2024-03-16T02:07:28.273Z,7.31
2024-03-16T02:08:28.267Z,7.27
2024-03-16T02:09:28.282Z,7.28
2024-03-16T02:10:28.250Z,7.27
2024-03-16T02:11:28.331Z,7.28
2024-03-16T02:12:28.288Z,7.25
2024-03-16T02:13:28.219Z,7.27
2024-03-16T02:14:28.192Z,7.27
2024-03-16T02:15:28.223Z,7.27
2024-03-16T02:16:28.183Z,7.30
2024-03-16T02:17:28.228Z,7.25
2024-03-16T02:18:28.175Z,7.27
2024-03-16T02:19:28.155Z,7.27
2024-03-16T02:20:28.147Z,7.23
2024-03-16T02:21:28.148Z,7.20
2024-03-16T02:22:28.128Z,7.17
2024-03-16T02:23:28.136Z,7.20
2024-03-16T02:24:28.112Z,7.17
2024-03-16T02:25:28.086Z,7.17
2024-03-16T02:26:28.076Z,7.16
2024-03-16T02:27:28.090Z,7.15
2024-03-16T02:28:28.072Z,7.13
2024-03-16T02:29:28.048Z,7.15
2024-03-16T02:30:28.215Z,7.16
2024-03-16T02:31:28.025Z,7.13
2024-03-16T02:32:28.020Z,7.16
2024-03-16T02:33:28.039Z,7.16
2024-03-16T02:34:27.992Z,7.20
2024-03-16T02:35:27.999Z,7.15
2024-03-16T02:36:27.996Z,7.15
2024-03-16T02:37:27.972Z,7.16
2024-03-16T02:38:27.957Z,7.16
2024-03-16T02:39:27.970Z,7.16
2024-03-16T02:40:27.943Z,7.16
2024-03-16T02:41:28.282Z,7.16
2024-03-16T02:42:27.950Z,7.20
2024-03-16T02:43:27.897Z,7.16
2024-03-16T02:44:27.887Z,7.16
2024-03-16T02:45:27.905Z,7.16
2024-03-16T02:46:27.888Z,7.15
2024-03-16T02:47:27.869Z,7.15
2024-03-16T02:48:28.007Z,7.12
2024-03-16T02:49:27.837Z,7.13
2024-03-16T02:50:27.835Z,7.12
2024-03-16T02:51:27.864Z,7.13
2024-03-16T02:52:27.801Z,7.12
2024-03-16T02:53:27.802Z,7.13
2024-03-16T02:54:27.868Z,7.12
2024-03-16T02:55:27.769Z,7.12
2024-03-16T02:56:27.758Z,7.12
2024-03-16T02:57:27.800Z,7.15
2024-03-16T02:58:27.736Z,7.10
2024-03-16T02:59:27.730Z,7.15
2024-03-16T03:00:27.748Z,7.12
2024-03-16T03:01:27.786Z,7.13
2024-03-16T03:02:27.722Z,7.13
2024-03-16T03:03:27.705Z,7.13
2024-03-16T03:04:27.673Z,7.13
2024-03-16T03:05:27.677Z,7.20
2024-03-16T03:06:27.710Z,7.21
2024-03-16T03:07:27.644Z,7.21
2024-03-16T03:08:27.634Z,7.24
2024-03-16T03:09:27.714Z,7.27
2024-03-16T03:10:27.614Z,7.25
2024-03-16T03:11:27.651Z,7.28
2024-03-16T03:12:27.667Z,7.31
2024-03-16T03:13:27.588Z,7.34
2024-03-16T03:14:27.581Z,7.30
2024-03-16T03:15:27.708Z,7.34
2024-03-16T03:16:27.557Z,7.32
2024-03-16T03:17:27.689Z,7.32
2024-03-16T03:18:27.628Z,7.32
2024-03-16T03:19:27.520Z,7.32
2024-03-16T03:20:27.509Z,7.32
2024-03-16T03:21:27.529Z,7.37
2024-03-16T03:22:27.488Z,7.37
2024-03-16T03:23:27.478Z,7.37
2024-03-16T03:24:27.506Z,7.35
2024-03-16T03:25:27.458Z,7.39
2024-03-16T03:26:27.441Z,7.48
2024-03-16T03:27:27.694Z,7.53
2024-03-16T03:28:27.423Z,7.64
2024-03-16T03:29:27.409Z,7.63
2024-03-16T03:30:27.427Z,7.67
2024-03-16T03:31:27.388Z,7.61
2024-03-16T03:32:27.485Z,7.63
2024-03-16T03:33:27.418Z,7.61
2024-03-16T03:34:27.415Z,7.60
2024-03-16T03:35:27.365Z,7.57
2024-03-16T03:36:27.375Z,7.53
2024-03-16T03:37:27.327Z,7.50
2024-03-16T03:38:27.457Z,7.48
2024-03-16T03:39:27.376Z,7.49
2024-03-16T03:40:27.399Z,7.50
2024-03-16T03:41:27.288Z,7.48
2024-03-16T03:42:27.503Z,7.50
2024-03-16T03:43:27.298Z,7.50
2024-03-16T03:44:27.258Z,7.46
2024-03-16T03:45:27.375Z,7.46
2024-03-16T03:46:27.336Z,7.46
2024-03-16T03:47:27.370Z,7.48
2024-03-16T03:48:27.424Z,7.48
2024-03-16T03:49:27.751Z,7.45
2024-03-16T03:50:27.182Z,7.45
2024-03-16T03:51:27.262Z,7.43
2024-03-16T03:52:27.193Z,7.45
2024-03-16T03:53:27.163Z,7.48
2024-03-16T03:54:27.185Z,7.45
2024-03-16T03:55:27.141Z,7.45
2024-03-16T03:56:27.118Z,7.42
2024-03-16T03:57:27.145Z,7.45
2024-03-16T03:58:27.118Z,7.45
2024-03-16T03:59:27.110Z,7.46
2024-03-16T04:00:27.102Z,7.43
2024-03-16T04:01:27.125Z,7.43
2024-03-16T04:02:27.077Z,7.42
2024-03-16T04:03:27.112Z,7.43
2024-03-16T04:04:27.056Z,7.43
2024-03-16T04:05:27.036Z,7.43
2024-03-16T04:06:27.187Z,7.43
2024-03-16T04:07:27.011Z,7.43
2024-03-16T04:08:27.009Z,7.45
2024-03-16T04:09:27.037Z,7.45
2024-03-16T04:10:26.983Z,7.46
2024-03-16T04:11:27.089Z,7.43
2024-03-16T04:12:27.048Z,7.45
2024-03-16T04:13:27.181Z,7.46
2024-03-16T04:14:27.049Z,7.43
2024-03-16T04:15:26.977Z,7.46
2024-03-16T04:16:26.928Z,7.48
2024-03-16T04:17:27.760Z,7.49
2024-03-16T04:18:26.930Z,7.49
2024-03-16T04:19:26.878Z,7.48
2024-03-16T04:20:26.901Z,7.50
2024-03-16T04:21:26.958Z,7.49
2024-03-16T04:22:26.856Z,7.50
2024-03-16T04:23:26.863Z,7.52
2024-03-16T04:24:26.859Z,7.52
2024-03-16T04:25:26.831Z,7.53
2024-03-16T04:26:26.868Z,7.52
2024-03-16T04:27:26.848Z,7.53
2024-03-16T04:28:26.792Z,7.52
2024-03-16T04:29:26.793Z,7.50
2024-03-16T04:30:27.396Z,7.53
2024-03-16T04:31:26.764Z,7.53
2024-03-16T04:32:26.785Z,7.50
2024-03-16T04:33:26.912Z,7.48
2024-03-16T04:34:26.745Z,7.53
2024-03-16T04:35:26.712Z,7.49
2024-03-16T04:36:26.748Z,7.48
2024-03-16T04:37:26.693Z,7.48
2024-03-16T04:38:26.812Z,7.48
2024-03-16T04:39:26.704Z,7.49
2024-03-16T04:40:26.677Z,7.49
2024-03-16T04:41:26.677Z,7.50
2024-03-16T04:42:26.733Z,7.49
2024-03-16T04:43:26.636Z,7.50
2024-03-16T04:44:26.646Z,7.49
2024-03-16T04:45:26.745Z,7.49
2024-03-16T04:46:26.619Z,7.48
2024-03-16T04:47:26.588Z,7.49
2024-03-16T04:48:26.650Z,7.49
2024-03-16T04:49:26.571Z,7.50
2024-03-16T04:50:26.565Z,7.52
2024-03-16T04:51:26.653Z,7.53
2024-03-16T04:52:26.565Z,7.55
2024-03-16T04:53:26.527Z,7.53
2024-03-16T04:54:26.653Z,7.57
2024-03-16T04:55:26.513Z,7.60
2024-03-16T04:56:26.494Z,7.58
2024-03-16T04:57:26.584Z,7.58
2024-03-16T04:58:26.501Z,7.53
2024-03-16T04:59:26.465Z,7.53
2024-03-16T05:00:26.662Z,7.57
2024-03-16T05:01:26.593Z,7.55
2024-03-16T05:02:26.505Z,7.53
2024-03-16T05:03:26.538Z,7.53
2024-03-16T05:04:26.406Z,7.55
2024-03-16T05:05:26.386Z,7.53
2024-03-16T05:06:26.410Z,7.52
2024-03-16T05:07:26.372Z,7.53
2024-03-16T05:08:26.379Z,7.55
2024-03-16T05:09:26.358Z,7.53
2024-03-16T05:10:26.497Z,7.52
2024-03-16T05:11:26.510Z,7.52
2024-03-16T05:12:26.410Z,7.50
2024-03-16T05:13:26.359Z,7.50
2024-03-16T05:14:26.307Z,7.49
2024-03-16T05:15:26.286Z,7.48
2024-03-16T05:16:26.353Z,7.46
2024-03-16T05:17:26.406Z,7.46
2024-03-16T05:18:26.837Z,7.43
2024-03-16T05:19:26.245Z,7.43
2024-03-16T05:20:26.239Z,7.46
2024-03-16T05:21:26.237Z,7.46
2024-03-16T05:22:26.295Z,7.45
2024-03-16T05:23:26.377Z,7.40
2024-03-16T05:24:26.208Z,7.42
2024-03-16T05:25:26.197Z,7.43
2024-03-16T05:26:26.171Z,7.43
2024-03-16T05:27:26.172Z,7.40
2024-03-16T05:28:27.945Z,7.43
2024-03-16T05:29:26.137Z,7.40
2024-03-16T05:30:26.150Z,7.42
2024-03-16T05:31:26.123Z,7.42
2024-03-16T05:32:26.155Z,7.42
2024-03-16T05:33:26.111Z,7.42
2024-03-16T05:34:26.143Z,7.40
2024-03-16T05:35:26.083Z,7.42
2024-03-16T05:36:26.077Z,7.39
2024-03-16T05:37:29.437Z,7.40
2024-03-16T05:38:26.059Z,7.40
2024-03-16T05:39:26.076Z,7.35
2024-03-16T05:40:26.139Z,7.39
2024-03-16T05:41:26.008Z,7.40
2024-03-16T05:42:26.014Z,7.35
2024-03-16T05:43:26.000Z,7.42
2024-03-16T05:44:26.013Z,7.40
2024-03-16T05:45:25.980Z,7.42
2024-03-16T05:46:25.970Z,7.42
2024-03-16T05:47:25.964Z,7.42
2024-03-16T05:48:25.950Z,7.43
2024-03-16T05:49:27.908Z,7.43
2024-03-16T05:50:25.926Z,7.43
2024-03-16T05:51:25.916Z,7.43
2024-03-16T05:52:25.905Z,7.42
2024-03-16T05:53:25.896Z,7.46
2024-03-16T05:54:25.885Z,7.45
2024-03-16T05:55:25.877Z,7.45
2024-03-16T05:56:25.872Z,7.45
2024-03-16T05:57:26.660Z,7.48
2024-03-16T05:58:25.852Z,7.49
2024-03-16T05:59:25.821Z,7.50
2024-03-16T06:00:25.820Z,7.52
2024-03-16T06:01:26.250Z,7.53
2024-03-16T06:02:26.609Z,7.53
2024-03-16T06:03:25.788Z,7.52
2024-03-16T06:04:25.771Z,7.53
2024-03-16T06:05:25.759Z,7.55
2024-03-16T06:06:26.556Z,7.57
2024-03-16T06:07:25.758Z,7.60
2024-03-16T06:08:25.742Z,7.60
2024-03-16T06:09:25.741Z,7.64
2024-03-16T06:10:25.736Z,7.69
2024-03-16T06:11:25.812Z,7.69
2024-03-16T06:12:25.701Z,7.69
2024-03-16T06:13:25.692Z,7.74
2024-03-16T06:14:25.684Z,7.77
2024-03-16T06:15:25.653Z,7.82
2024-03-16T06:16:25.648Z,7.83
2024-03-16T06:17:25.641Z,7.85
2024-03-16T06:18:25.635Z,7.87
2024-03-16T06:19:25.609Z,7.92
2024-03-16T06:20:25.602Z,7.92
2024-03-16T06:21:25.596Z,7.95
2024-03-16T06:22:25.585Z,8.00
2024-03-16T06:23:25.579Z,7.98
2024-03-16T06:24:25.569Z,7.98
2024-03-16T06:25:25.723Z,8.00
2024-03-16T06:26:25.549Z,8.02
2024-03-16T06:27:25.536Z,8.01
2024-03-16T06:28:25.523Z,8.02
2024-03-16T06:29:25.513Z,8.08
2024-03-16T06:30:26.307Z,8.11
2024-03-16T06:31:25.582Z,8.07
2024-03-16T06:32:25.545Z,8.05
2024-03-16T06:33:25.461Z,8.05
2024-03-16T06:34:25.681Z,8.07
2024-03-16T06:35:25.445Z,8.04
2024-03-16T06:36:25.445Z,8.04
2024-03-16T06:37:25.497Z,7.98
2024-03-16T06:38:25.487Z,8.00
2024-03-16T06:39:25.407Z,8.02
2024-03-16T06:40:25.460Z,8.04
2024-03-16T06:41:25.367Z,8.04
2024-03-16T06:42:25.369Z,8.05
2024-03-16T06:43:25.364Z,8.10
2024-03-16T06:44:25.359Z,8.11
2024-03-16T06:45:25.334Z,8.12
2024-03-16T06:46:25.333Z,8.15
2024-03-16T06:47:25.315Z,8.08
2024-03-16T06:48:25.312Z,8.12
2024-03-16T06:49:25.294Z,8.15
2024-03-16T06:50:25.274Z,8.15
2024-03-16T06:51:25.265Z,8.15
2024-03-16T06:52:25.258Z,8.18
2024-03-16T06:53:25.240Z,8.20
2024-03-16T06:54:25.242Z,8.19
2024-03-16T06:55:25.309Z,8.22
2024-03-16T06:56:25.225Z,8.18
2024-03-16T06:57:25.195Z,8.16
2024-03-16T06:58:25.197Z,8.18
2024-03-16T06:59:25.182Z,8.18
2024-03-16T07:00:25.174Z,8.19
2024-03-16T07:01:25.254Z,8.19
2024-03-16T07:02:25.172Z,8.25
2024-03-16T07:03:25.152Z,8.28
2024-03-16T07:04:25.176Z,8.33
2024-03-16T07:05:25.149Z,8.38
2024-03-16T07:06:25.116Z,8.44
2024-03-16T07:07:25.098Z,8.45
2024-03-16T07:08:25.089Z,8.50
2024-03-16T07:09:25.189Z,8.48
2024-03-16T07:10:25.135Z,8.52
2024-03-16T07:11:25.122Z,8.55
2024-03-16T07:12:25.042Z,8.63
2024-03-16T07:13:25.026Z,8.61
2024-03-16T07:14:25.055Z,8.71
2024-03-16T07:15:25.279Z,8.76
2024-03-16T07:16:25.036Z,8.80
2024-03-16T07:17:24.977Z,8.91
2024-03-16T07:18:25.009Z,8.95
2024-03-16T07:19:25.011Z,8.98
2024-03-16T07:20:24.973Z,9.02
2024-03-16T07:21:26.485Z,9.10
2024-03-16T07:22:24.932Z,9.21
2024-03-16T07:23:24.925Z,9.29
2024-03-16T07:24:24.937Z,9.38
2024-03-16T07:25:24.994Z,9.48
2024-03-16T07:26:24.889Z,9.56
2024-03-16T07:27:24.882Z,9.58
2024-03-16T07:28:24.881Z,9.65
2024-03-16T07:29:24.975Z,9.69
2024-03-16T07:30:24.845Z,9.72
2024-03-16T07:31:24.829Z,9.78
2024-03-16T07:32:24.846Z,9.71
2024-03-16T07:33:24.811Z,9.57
2024-03-16T07:34:24.936Z,9.57
2024-03-16T07:35:24.810Z,9.60
2024-03-16T07:36:24.805Z,9.66
2024-03-16T07:37:24.823Z,9.79
2024-03-16T07:38:24.766Z,9.71
2024-03-16T07:39:24.744Z,9.84
2024-03-16T07:40:24.814Z,9.90
2024-03-16T07:41:25.337Z,9.99
2024-03-16T07:42:24.727Z,10.05
2024-03-16T07:43:24.750Z,10.14
2024-03-16T07:44:24.699Z,10.15
2024-03-16T07:45:24.704Z,9.91
2024-03-16T07:46:24.705Z,9.89
2024-03-16T07:47:24.674Z,9.96
2024-03-16T07:48:24.661Z,10.01
2024-03-16T07:49:24.675Z,10.04
2024-03-16T07:50:24.631Z,10.04
2024-03-16T07:51:24.625Z,10.07
2024-03-16T07:52:24.636Z,10.09
2024-03-16T07:53:24.627Z,10.14
2024-03-16T07:54:24.591Z,10.04
2024-03-16T07:55:24.577Z,9.99
2024-03-16T07:56:24.584Z,10.08
2024-03-16T07:57:24.545Z,10.09
2024-03-16T07:58:24.549Z,10.07
2024-03-16T07:59:24.538Z,10.11
2024-03-16T08:00:24.522Z,10.14
2024-03-16T08:01:24.648Z,10.14
2024-03-16T08:02:24.589Z,10.12
2024-03-16T08:03:24.505Z,10.04
2024-03-16T08:04:24.521Z,10.08
2024-03-16T08:05:24.480Z,10.11
2024-03-16T08:06:24.458Z,10.11
2024-03-16T08:07:24.445Z,10.11
2024-03-16T08:08:25.237Z,10.12
2024-03-16T08:09:24.427Z,10.05
2024-03-16T08:10:24.549Z,10.02
2024-03-16T08:11:24.482Z,10.08
2024-03-16T08:12:24.394Z,10.11
2024-03-16T08:13:24.484Z,10.12
2024-03-16T08:14:24.381Z,10.14
2024-03-16T08:15:24.354Z,10.11
2024-03-16T08:16:24.392Z,10.18
2024-03-16T08:17:24.544Z,10.26
2024-03-16T08:18:24.336Z,10.18
2024-03-16T08:19:24.359Z,10.18
2024-03-16T08:20:24.313Z,10.22
2024-03-16T08:21:24.304Z,10.27
2024-03-16T08:22:24.507Z,10.38
2024-03-16T08:23:24.336Z,10.41
2024-03-16T08:24:24.275Z,10.38
2024-03-16T08:25:24.349Z,10.42
2024-03-16T08:26:24.272Z,10.40
2024-03-16T08:27:27.803Z,10.36
2024-03-16T08:28:25.370Z,10.34
2024-03-16T08:29:24.236Z,10.33
2024-03-16T08:30:24.212Z,10.41
2024-03-16T08:31:24.275Z,10.47
2024-03-16T08:32:24.214Z,10.48
2024-03-16T08:33:24.198Z,10.40
2024-03-16T08:34:24.349Z,10.34
2024-03-16T08:35:24.154Z,10.45
2024-03-16T08:36:24.205Z,10.56
2024-03-16T08:37:24.204Z,10.70
2024-03-16T08:38:24.116Z,10.82
2024-03-16T08:39:24.142Z,10.91
2024-03-16T08:40:24.178Z,10.91
2024-03-16T08:41:24.209Z,10.99
2024-03-16T08:42:24.115Z,11.09
2024-03-16T08:43:24.156Z,11.27
2024-03-16T08:44:24.047Z,11.42
2024-03-16T08:45:24.052Z,11.46
2024-03-16T08:46:27.398Z,11.61
2024-03-16T08:47:24.167Z,11.62
2024-03-16T08:48:24.018Z,11.58
2024-03-16T08:49:24.042Z,11.80
2024-03-16T08:50:24.014Z,12.10
2024-03-16T08:51:23.988Z,12.27
2024-03-16T08:52:24.049Z,12.49
2024-03-16T08:53:23.971Z,12.87
2024-03-16T08:54:23.938Z,12.89
2024-03-16T08:55:23.953Z,12.79
2024-03-16T08:56:23.911Z,12.78
2024-03-16T08:57:23.942Z,12.65
2024-03-16T08:58:24.034Z,12.50
2024-03-16T08:59:24.017Z,12.47
2024-03-16T09:00:23.873Z,12.29
2024-03-16T09:01:23.991Z,12.23
2024-03-16T09:02:23.854Z,12.09
2024-03-16T09:03:24.079Z,12.05
2024-03-16T09:04:23.982Z,12.12
2024-03-16T09:05:23.827Z,12.27
2024-03-16T09:06:23.838Z,12.29
2024-03-16T09:07:23.990Z,12.28
2024-03-16T09:08:23.807Z,12.23
2024-03-16T09:09:23.838Z,12.24
2024-03-16T09:10:23.804Z,12.32
2024-03-16T09:11:27.002Z,12.49
2024-03-16T09:12:23.758Z,12.47
2024-03-16T09:13:23.826Z,12.60
2024-03-16T09:14:23.730Z,12.64
2024-03-16T09:15:23.717Z,12.87
2024-03-16T09:16:23.792Z,13.08
2024-03-16T09:17:23.706Z,13.32
2024-03-16T09:18:23.689Z,13.45
2024-03-16T09:19:23.695Z,13.59
2024-03-16T09:20:23.663Z,13.64
2024-03-16T09:21:24.179Z,14.24
2024-03-16T09:22:23.701Z,14.69
2024-03-16T09:23:23.639Z,14.83
2024-03-16T09:24:23.683Z,15.03
2024-03-16T09:25:23.757Z,15.20
2024-03-16T09:26:23.647Z,15.20
2024-03-16T09:27:23.629Z,14.95
2024-03-16T09:28:23.757Z,15.03
2024-03-16T09:29:23.615Z,15.16
2024-03-16T09:30:23.710Z,15.39
2024-03-16T09:31:23.706Z,15.59
2024-03-16T09:32:23.531Z,15.50
2024-03-16T09:33:23.537Z,15.74
2024-03-16T09:34:23.540Z,15.69
2024-03-16T09:35:23.522Z,15.71
2024-03-16T09:36:23.501Z,15.72
2024-03-16T09:37:23.476Z,15.74
2024-03-16T09:38:23.481Z,15.59
2024-03-16T09:39:23.542Z,15.20
2024-03-16T09:40:23.621Z,15.16
2024-03-16T09:41:23.442Z,15.31
2024-03-16T09:42:23.429Z,15.32
2024-03-16T09:43:23.441Z,14.84
2024-03-16T09:44:23.381Z,14.80
2024-03-16T09:45:23.384Z,14.78
2024-03-16T09:46:23.363Z,15.28
2024-03-16T09:47:23.373Z,15.75
2024-03-16T09:48:27.205Z,15.68
2024-03-16T09:49:23.351Z,15.34
2024-03-16T09:50:23.335Z,15.19
2024-03-16T09:51:23.311Z,15.09
2024-03-16T09:52:23.323Z,15.03
2024-03-16T09:53:23.812Z,14.89
2024-03-16T09:54:23.285Z,14.43
2024-03-16T09:55:24.377Z,14.36
2024-03-16T09:56:24.185Z,14.22
2024-03-16T09:57:23.877Z,14.18
2024-03-16T09:58:23.351Z,14.20
2024-03-16T09:59:30.483Z,14.20
2024-03-16T10:00:24.220Z,14.27
2024-03-16T10:01:23.291Z,14.22
2024-03-16T10:02:23.211Z,14.06
2024-03-16T10:03:23.719Z,14.29
2024-03-16T10:04:23.171Z,14.52
2024-03-16T10:05:23.157Z,14.72
2024-03-16T10:06:23.148Z,14.86
2024-03-16T10:07:23.151Z,14.99
2024-03-16T10:08:23.133Z,15.07
2024-03-16T10:09:23.151Z,14.77
2024-03-16T10:10:23.104Z,14.37
2024-03-16T10:11:23.111Z,14.27
2024-03-16T10:12:23.082Z,14.03
2024-03-16T10:13:23.076Z,14.00
2024-03-16T10:14:23.071Z,14.07
2024-03-16T10:15:23.063Z,14.07
2024-03-16T10:16:23.042Z,13.96
2024-03-16T10:17:23.838Z,13.88
2024-03-16T10:18:23.031Z,13.82
2024-03-16T10:19:25.437Z,13.82
2024-03-16T10:20:23.005Z,13.73
2024-03-16T10:21:23.807Z,13.87
2024-03-16T10:22:22.982Z,13.99
2024-03-16T10:23:22.980Z,14.21
2024-03-16T10:24:22.960Z,14.43
2024-03-16T10:25:22.950Z,14.60
2024-03-16T10:26:22.930Z,14.75
2024-03-16T10:27:22.935Z,14.88
2024-03-16T10:28:22.915Z,15.13
2024-03-16T10:29:22.901Z,15.32
2024-03-16T10:30:22.894Z,15.36
2024-03-16T10:31:22.881Z,15.23
2024-03-16T10:32:22.872Z,15.47
2024-03-16T10:33:22.865Z,15.75
2024-03-16T10:34:22.848Z,15.86
2024-03-16T10:35:22.842Z,16.00
2024-03-16T10:36:22.825Z,15.89
2024-03-16T10:37:23.675Z,15.84
2024-03-16T10:38:22.835Z,15.80
2024-03-16T10:39:22.818Z,15.83
2024-03-16T10:40:22.794Z,15.59
2024-03-16T10:41:23.599Z,15.59
2024-03-16T10:42:22.754Z,16.00
2024-03-16T10:43:22.777Z,16.27
2024-03-16T10:44:22.797Z,16.35
2024-03-16T10:45:22.729Z,16.20
2024-03-16T10:46:22.717Z,16.00
2024-03-16T10:47:22.718Z,15.83
2024-03-16T10:48:22.700Z,15.74
2024-03-16T10:49:22.688Z,15.87
2024-03-16T10:50:22.943Z,15.39
2024-03-16T10:51:22.687Z,15.14
2024-03-16T10:52:22.651Z,15.75
2024-03-16T10:53:22.648Z,16.12
2024-03-16T10:54:22.629Z,16.14
2024-03-16T10:55:22.726Z,16.50
2024-03-16T10:56:22.633Z,17.16
2024-03-16T10:57:22.600Z,17.78
2024-03-16T10:58:22.595Z,18.84
2024-03-16T10:59:22.580Z,19.21
2024-03-16T11:00:22.596Z,20.13
2024-03-16T11:01:22.607Z,20.48
2024-03-16T11:02:22.543Z,20.80
2024-03-16T11:03:22.550Z,20.74
2024-03-16T11:04:22.532Z,20.31
2024-03-16T11:05:22.585Z,19.77
2024-03-16T11:06:22.502Z,19.46
2024-03-16T11:07:22.498Z,19.59
2024-03-16T11:08:22.493Z,19.08
2024-03-16T11:09:22.491Z,19.19
2024-03-16T11:10:22.479Z,17.89
2024-03-16T11:11:22.529Z,16.56
2024-03-16T11:12:22.432Z,16.61
2024-03-16T11:13:22.441Z,17.21
2024-03-16T11:14:22.456Z,18.33
2024-03-16T11:15:22.463Z,18.92
2024-03-16T11:16:22.396Z,18.57
2024-03-16T11:17:22.453Z,18.25
2024-03-16T11:18:22.373Z,17.89
2024-03-16T11:19:22.393Z,17.37
2024-03-16T11:20:22.367Z,16.53
2024-03-16T11:21:22.360Z,15.89
2024-03-16T11:22:22.337Z,15.87
2024-03-16T11:23:22.345Z,15.69
2024-03-16T11:24:22.312Z,15.74
2024-03-16T11:25:22.305Z,15.86
2024-03-16T11:26:22.295Z,16.05
2024-03-16T11:27:22.281Z,16.00
2024-03-16T11:28:22.342Z,16.20
2024-03-16T11:29:22.273Z,16.45
2024-03-16T11:30:33.151Z,17.12
2024-03-16T11:31:23.254Z,17.71
2024-03-16T11:32:22.224Z,18.11
2024-03-16T11:33:22.221Z,18.98
2024-03-16T11:34:22.223Z,20.13
2024-03-16T11:35:22.216Z,20.29
2024-03-16T11:36:22.190Z,20.31
2024-03-16T11:37:22.190Z,19.94
2024-03-16T11:38:22.171Z,18.84
2024-03-16T11:39:22.173Z,18.50
2024-03-16T11:40:22.142Z,18.20
2024-03-16T11:41:22.145Z,17.89
2024-03-16T11:42:22.141Z,17.81
2024-03-16T11:43:22.116Z,17.93
2024-03-16T11:44:22.106Z,17.89
2024-03-16T11:45:22.099Z,17.66
2024-03-16T11:46:22.090Z,17.48
2024-03-16T11:47:22.089Z,17.92
2024-03-16T11:48:22.080Z,18.84
2024-03-16T11:49:22.075Z,19.33
2024-03-16T11:50:22.033Z,19.56
2024-03-16T11:51:22.032Z,19.65
2024-03-16T11:52:22.025Z,19.55
2024-03-16T11:53:22.008Z,19.61
2024-03-16T11:54:22.011Z,19.44
2024-03-16T11:55:21.984Z,18.88
2024-03-16T11:56:21.980Z,18.47
2024-03-16T11:57:21.984Z,18.03
2024-03-16T11:58:22.031Z,17.46
2024-03-16T11:59:21.994Z,17.99
2024-03-16T12:00:21.957Z,17.89
2024-03-16T12:01:21.941Z,17.63
2024-03-16T12:02:21.948Z,17.99
2024-03-16T12:03:21.906Z,17.86
2024-03-16T12:04:21.979Z,17.56
2024-03-16T12:05:21.890Z,17.46
2024-03-16T12:06:21.885Z,17.59
2024-03-16T12:07:21.868Z,18.03
2024-03-16T12:08:21.845Z,17.72
2024-03-16T12:09:21.848Z,17.56
2024-03-16T12:10:21.830Z,17.46
2024-03-16T12:11:21.972Z,17.22
2024-03-16T12:12:21.819Z,16.89
2024-03-16T12:13:21.881Z,16.35
2024-03-16T12:14:31.526Z,16.24
2024-03-16T12:15:22.783Z,16.21
2024-03-16T12:16:21.826Z,16.21
2024-03-16T12:17:21.756Z,16.12
2024-03-16T12:18:21.744Z,15.56
2024-03-16T12:19:21.727Z,15.32
2024-03-16T12:20:21.716Z,15.20
2024-03-16T12:21:21.719Z,15.16
2024-03-16T12:22:21.694Z,15.16
2024-03-16T12:23:21.684Z,15.19
2024-03-16T12:24:21.681Z,15.17
2024-03-16T12:25:21.678Z,14.98
2024-03-16T12:26:21.678Z,14.96
2024-03-16T12:27:21.660Z,15.16
2024-03-16T12:28:21.640Z,15.41
2024-03-16T12:29:21.729Z,15.32
2024-03-16T12:30:21.608Z,15.41
2024-03-16T12:31:21.601Z,16.05
2024-03-16T12:32:21.588Z,16.25
2024-03-16T12:33:21.583Z,16.14
2024-03-16T12:34:21.582Z,15.82
2024-03-16T12:35:21.572Z,15.76
2024-03-16T12:36:21.547Z,15.96
2024-03-16T12:37:21.529Z,16.33
2024-03-16T12:38:21.524Z,16.64
2024-03-16T12:39:21.511Z,16.52
2024-03-16T12:40:21.513Z,15.96
2024-03-16T12:41:21.491Z,15.36
2024-03-16T12:42:21.488Z,15.07
2024-03-16T12:43:21.475Z,14.91
2024-03-16T12:44:21.468Z,14.80
2024-03-16T12:45:21.452Z,14.65
2024-03-16T12:46:21.434Z,14.43
2024-03-16T12:47:21.429Z,14.35
2024-03-16T12:48:21.421Z,14.17
2024-03-16T12:49:21.422Z,14.07
2024-03-16T12:50:21.407Z,14.17
2024-03-16T12:51:21.383Z,14.33
2024-03-16T12:52:21.371Z,14.62
2024-03-16T12:53:21.367Z,14.91
2024-03-16T12:54:21.353Z,14.92
2024-03-16T12:55:21.453Z,14.86
2024-03-16T12:56:21.331Z,14.94
2024-03-16T12:57:21.320Z,14.77
2024-03-16T12:58:21.337Z,14.78
2024-03-16T12:59:21.290Z,14.80
2024-03-16T13:00:22.423Z,14.78
2024-03-16T13:01:21.272Z,14.81
2024-03-16T13:02:21.270Z,14.86
2024-03-16T13:03:21.257Z,14.91
2024-03-16T13:04:21.244Z,14.81
2024-03-16T13:05:21.229Z,14.88
2024-03-16T13:06:22.645Z,14.89
2024-03-16T13:07:21.205Z,15.14